LZKZ Airport Information

Runway Information
Runway 01 Length 10171 ft width 148 ft
Elevation 739 ft Threshold 0 ft Heading 13
Runway 19 Length 10171 ft Width 148 ft
Elevation 753 ft Threshold 0 ft Heading 193
Airport Frequencies
Type APP Name APP Frequency 119.85 MHZ
Type TWR Name TWR Frequency 120.4 MHZ
Airport Navaids
Type NDB Name Kosice Frequency 425 KHZ
Type VOR-DME Name Kosice Frequency 108200 KHZ
Airport Weather Information & NOTAM
ADDS - METARS form results

(0422 UTC 16 October 2019)
Data provider http://aviationweather.gov/metar/data/
 
METAR text: LZKZ 160400Z VRB01KT 7000 2000S BCFG FEW002 08/07 Q1015
Conditions at: LZKZ (KOSICE BARCA , SK) observed 0400 UTC 16 October 2019
Temperature: 8.0°C (46°F)
Dewpoint: 7.0°C (45°F) [RH = 93%]
Pressure (altimeter): 29.97 inches Hg (1015.0 mb)
Winds: variable direction winds at 1 MPH (1 knots; 0.5 m/s)
Visibility: 4 miles ( 7 km)
Ceiling: at least 12,000 feet AGL
Clouds: few clouds at 200 feet AGL
Weather: BCFG  (patches of fog)

METAR text: LZKZ 160346Z VRB01KT 7000 1600S R01/0550D BCFG FEW002 08/07 Q1015
Conditions at: LZKZ (KOSICE BARCA , SK) observed 0346 UTC 16 October 2019
Temperature: 8.0°C (46°F)
Dewpoint: 7.0°C (45°F) [RH = 93%]
Pressure (altimeter): 29.97 inches Hg (1015.0 mb)
Winds: variable direction winds at 1 MPH (1 knots; 0.5 m/s)
Visibility: 4 miles ( 7 km)
Ceiling: at least 12,000 feet AGL
Clouds: few clouds at 200 feet AGL
Weather: BCFG  (patches of fog)

METAR text: LZKZ 160330Z VRB01KT 7000 1800S BCFG FEW002 08/07 Q1015
Conditions at: LZKZ (KOSICE BARCA , SK) observed 0330 UTC 16 October 2019
Temperature: 8.0°C (46°F)
Dewpoint: 7.0°C (45°F) [RH = 93%]
Pressure (altimeter): 29.97 inches Hg (1015.0 mb)
Winds: variable direction winds at 1 MPH (1 knots; 0.5 m/s)
Visibility: 4 miles ( 7 km)
Ceiling: at least 12,000 feet AGL
Clouds: few clouds at 200 feet AGL
Weather: BCFG  (patches of fog)

Forecast for: LZKZ (KOSICE BARCA , SK)
Text: TAF LZKZ 152300Z 1600/1700 VRB02KT CAVOK
Forecast period: 0000 to 0700 UTC 16 October 2019
Forecast type: FROM: standard forecast or significant change
Winds: variable direction winds at 2 MPH (2 knots; 1.0 m/s)
Visibility: 6 or more miles 10+ km)
Ceiling: unknown
Clouds: missing
Weather: NSW  (no significant weather)
Text: TEMPO 1601/1607 1200 BCFG SCT003
Forecast period: 0100 to 0700 UTC 16 October 2019
Forecast type: TEMPORARY: The following changes expected for less than half the time period
Visibility: 0.75 miles (1.21 km)
Ceiling: at least 12,000 feet AGL
Clouds: scattered clouds at 300 feet AGL
Weather: BCFG  (patches of fog)
Text: BECMG 1607/1609 20007KT
Forecast period: 0700 to 2100 UTC 16 October 2019
Forecast type: BECOMING: Conditions expected to become as follows by 0900 UTC 16 October 2019
Winds: from the SSW (200 degrees) at 8 MPH (7 knots; 3.6 m/s)
Visibility: 6 or more miles 10+ km)
Ceiling: unknown
Clouds: missing
Weather: NSW  (no significant weather)
Text: BECMG 1621/1623 VRB02KT 2500 BR SCT002
Forecast period: 2100 UTC 16 October 2019 to 0000 UTC 17 October 2019
Forecast type: BECOMING: Conditions expected to become as follows by 2300 UTC 16 October 2019
Winds: variable direction winds at 2 MPH (2 knots; 1.0 m/s)
Visibility: 1.55 miles (2.49 km)
Ceiling: at least 12,000 feet AGL
Clouds: scattered clouds at 200 feet AGL
Weather: BR  (mist)